createdAt,value
2024-01-19T00:00:38.334Z,99.99
2024-01-19T00:01:38.307Z,99.99
2024-01-19T00:02:38.343Z,99.99
2024-01-19T00:03:38.312Z,99.99
2024-01-19T00:04:38.313Z,99.99
2024-01-19T00:05:38.412Z,99.99
2024-01-19T00:06:38.322Z,99.99
2024-01-19T00:07:38.377Z,99.99
2024-01-19T00:08:38.465Z,99.99
2024-01-19T00:09:38.330Z,99.99
2024-01-19T00:10:38.333Z,99.99
2024-01-19T00:11:38.375Z,99.99
2024-01-19T00:12:38.358Z,99.99
2024-01-19T00:13:38.342Z,99.99
2024-01-19T00:14:38.353Z,99.99
2024-01-19T00:15:42.442Z,99.99
2024-01-19T00:16:38.364Z,99.99
2024-01-19T00:17:38.461Z,99.99
2024-01-19T00:18:38.421Z,99.99
2024-01-19T00:19:38.378Z,99.99
2024-01-19T00:20:38.385Z,99.99
2024-01-19T00:21:38.362Z,99.99
2024-01-19T00:22:38.366Z,99.99
2024-01-19T00:23:38.416Z,99.99
2024-01-19T00:24:38.412Z,99.99
2024-01-19T00:25:38.373Z,99.99
2024-01-19T00:26:38.423Z,99.99
2024-01-19T00:27:38.379Z,99.99
2024-01-19T00:28:38.384Z,99.99
2024-01-19T00:29:38.423Z,99.99
2024-01-19T00:30:38.388Z,99.99
2024-01-19T00:31:38.396Z,99.99
2024-01-19T00:32:38.462Z,99.99
2024-01-19T00:33:38.420Z,99.99
2024-01-19T00:34:38.435Z,99.99
2024-01-19T00:35:38.446Z,99.99
2024-01-19T00:36:38.409Z,99.99
2024-01-19T00:37:38.408Z,99.99
2024-01-19T00:38:38.474Z,99.99
2024-01-19T00:39:38.429Z,99.99
2024-01-19T00:40:38.436Z,99.99
2024-01-19T00:41:38.456Z,99.99
2024-01-19T00:42:38.424Z,99.99
2024-01-19T00:43:38.425Z,99.99
2024-01-19T00:44:38.479Z,99.99
2024-01-19T00:45:38.430Z,99.99
2024-01-19T00:46:38.434Z,99.99
2024-01-19T00:47:38.626Z,99.99
2024-01-19T00:48:38.522Z,99.99
2024-01-19T00:49:38.466Z,99.99
2024-01-19T00:50:38.497Z,99.99
2024-01-19T00:51:38.460Z,99.99
2024-01-19T00:52:38.467Z,99.99
2024-01-19T00:53:38.474Z,99.99
2024-01-19T00:54:38.456Z,99.99
2024-01-19T00:55:38.459Z,99.99
2024-01-19T00:56:38.542Z,99.99
2024-01-19T00:57:38.470Z,99.99
2024-01-19T00:58:38.474Z,99.99
2024-01-19T00:59:38.525Z,99.99
2024-01-19T01:00:38.505Z,99.99
2024-01-19T01:01:38.482Z,99.99
2024-01-19T01:02:38.554Z,99.99
2024-01-19T01:03:38.586Z,99.99
2024-01-19T01:04:38.484Z,99.99
2024-01-19T01:05:38.618Z,99.99
2024-01-19T01:06:38.604Z,99.99
2024-01-19T01:07:38.523Z,99.99
2024-01-19T01:08:38.544Z,99.99
2024-01-19T01:09:38.498Z,99.99
2024-01-19T01:10:38.505Z,99.99
2024-01-19T01:11:38.529Z,99.99
2024-01-19T01:12:38.572Z,99.99
2024-01-19T01:13:38.517Z,99.99
2024-01-19T01:14:38.694Z,99.99
2024-01-19T01:15:38.521Z,99.99
2024-01-19T01:16:38.515Z,99.99
2024-01-19T01:17:38.581Z,99.99
2024-01-19T01:18:38.719Z,99.99
2024-01-19T01:19:38.533Z,99.99
2024-01-19T01:20:38.553Z,99.99
2024-01-19T01:21:38.632Z,99.99
2024-01-19T01:22:38.538Z,99.99
2024-01-19T01:23:38.595Z,99.99
2024-01-19T01:24:38.540Z,99.99
2024-01-19T01:25:38.543Z,99.99
2024-01-19T01:26:38.567Z,99.99
2024-01-19T01:27:38.550Z,99.99
2024-01-19T01:28:38.578Z,99.99
2024-01-19T01:29:38.649Z,99.99
2024-01-19T01:30:38.556Z,99.99
2024-01-19T01:31:38.560Z,99.99
2024-01-19T01:32:38.663Z,99.99
2024-01-19T01:33:38.717Z,99.99
2024-01-19T01:34:38.618Z,99.99
2024-01-19T01:35:38.618Z,99.99
2024-01-19T01:36:38.578Z,99.99
2024-01-19T01:37:38.588Z,99.99
2024-01-19T01:38:38.614Z,99.99
2024-01-19T01:39:38.595Z,99.99
2024-01-19T01:40:38.612Z,99.99
2024-01-19T01:41:38.614Z,99.99
2024-01-19T01:42:38.603Z,99.99
2024-01-19T01:43:38.598Z,99.99
2024-01-19T01:44:38.660Z,99.99
2024-01-19T01:45:38.619Z,99.99
2024-01-19T01:46:38.610Z,99.99
2024-01-19T01:47:38.766Z,99.99
2024-01-19T01:48:38.900Z,99.99
2024-01-19T01:49:38.836Z,99.99
2024-01-19T01:50:38.691Z,99.99
2024-01-19T01:51:38.625Z,99.99
2024-01-19T01:52:38.628Z,99.99
2024-01-19T01:53:38.655Z,99.99
2024-01-19T01:54:38.637Z,99.99
2024-01-19T01:55:38.634Z,99.99
2024-01-19T01:56:38.681Z,99.99
2024-01-19T01:57:38.643Z,99.99
2024-01-19T01:58:38.644Z,99.99
2024-01-19T01:59:38.688Z,99.99
2024-01-19T02:00:38.705Z,99.99
2024-01-19T02:01:38.652Z,99.99
2024-01-19T02:02:38.682Z,99.99
2024-01-19T02:03:38.664Z,99.99
2024-01-19T02:04:38.673Z,99.99
2024-01-19T02:05:38.886Z,99.99
2024-01-19T02:06:38.879Z,99.99
2024-01-19T02:07:39.089Z,99.99
2024-01-19T02:08:38.719Z,99.99
2024-01-19T02:09:38.683Z,99.99
2024-01-19T02:10:38.679Z,99.99
2024-01-19T02:11:38.738Z,99.99
2024-01-19T02:12:38.684Z,99.99
2024-01-19T02:13:38.685Z,99.99
2024-01-19T02:14:38.736Z,99.99
2024-01-19T02:15:38.706Z,99.99
2024-01-19T02:16:38.725Z,99.99
2024-01-19T02:17:38.881Z,99.99
2024-01-19T02:18:38.936Z,99.99
2024-01-19T02:19:38.728Z,99.99
2024-01-19T02:20:38.761Z,99.99
2024-01-19T02:21:38.721Z,99.99
2024-01-19T02:22:38.717Z,99.99
2024-01-19T02:23:38.768Z,99.99
2024-01-19T02:24:38.741Z,99.99
2024-01-19T02:25:38.741Z,99.99
2024-01-19T02:26:38.757Z,99.99
2024-01-19T02:27:38.825Z,99.99
2024-01-19T02:28:38.755Z,99.99
2024-01-19T02:29:38.759Z,99.99
2024-01-19T02:30:38.739Z,99.99
2024-01-19T02:31:38.773Z,99.99
2024-01-19T02:32:38.879Z,99.99
2024-01-19T02:33:38.769Z,99.99
2024-01-19T02:34:38.785Z,99.99
2024-01-19T02:35:38.782Z,99.99
2024-01-19T02:36:38.740Z,99.99
2024-01-19T02:37:38.749Z,99.99
2024-01-19T02:38:38.762Z,99.99
2024-01-19T02:39:38.757Z,99.99
2024-01-19T02:40:38.757Z,99.99
2024-01-19T02:41:38.801Z,99.99
2024-01-19T02:42:38.778Z,99.99
2024-01-19T02:43:38.767Z,99.99
2024-01-19T02:44:38.803Z,99.99
2024-01-19T02:45:38.768Z,99.99
2024-01-19T02:46:38.764Z,99.99
2024-01-19T02:47:38.858Z,99.99
2024-01-19T02:48:38.928Z,99.99
2024-01-19T02:49:38.897Z,99.99
2024-01-19T02:50:38.869Z,99.99
2024-01-19T02:51:38.777Z,99.99
2024-01-19T02:52:38.803Z,99.99
2024-01-19T02:53:38.796Z,99.99
2024-01-19T02:54:38.780Z,99.99
2024-01-19T02:55:38.787Z,99.99
2024-01-19T02:56:38.806Z,99.99
2024-01-19T02:57:38.788Z,99.99
2024-01-19T02:58:38.810Z,99.99
2024-01-19T02:59:38.844Z,99.99
2024-01-19T03:00:38.855Z,99.99
2024-01-19T03:01:38.801Z,99.99
2024-01-19T03:02:38.856Z,99.99
2024-01-19T03:03:38.810Z,99.99
2024-01-19T03:04:38.869Z,99.99
2024-01-19T03:05:38.896Z,99.99
2024-01-19T03:06:38.839Z,99.99
2024-01-19T03:07:38.825Z,99.99
2024-01-19T03:08:38.827Z,99.99
2024-01-19T03:09:38.816Z,99.99
2024-01-19T03:10:38.827Z,99.99
2024-01-19T03:11:38.853Z,99.99
2024-01-19T03:12:38.821Z,99.99
2024-01-19T03:13:38.832Z,99.99
2024-01-19T03:14:38.861Z,99.99
2024-01-19T03:15:38.829Z,99.99
2024-01-19T03:16:38.829Z,99.99
2024-01-19T03:17:38.960Z,99.99
2024-01-19T03:18:38.867Z,99.99
2024-01-19T03:19:38.868Z,99.99
2024-01-19T03:20:38.897Z,99.99
2024-01-19T03:21:38.850Z,99.99
2024-01-19T03:22:38.838Z,99.99
2024-01-19T03:23:38.859Z,99.99
2024-01-19T03:24:38.844Z,99.99
2024-01-19T03:25:38.854Z,99.99
2024-01-19T03:26:38.904Z,99.99
2024-01-19T03:27:38.858Z,99.99
2024-01-19T03:28:38.856Z,99.99
2024-01-19T03:29:38.867Z,99.99
2024-01-19T03:30:38.891Z,99.99
2024-01-19T03:31:38.866Z,99.99
2024-01-19T03:32:38.924Z,99.99
2024-01-19T03:33:38.920Z,99.99
2024-01-19T03:34:38.879Z,99.99
2024-01-19T03:35:38.942Z,99.99
2024-01-19T03:36:38.895Z,99.99
2024-01-19T03:37:38.884Z,99.99
2024-01-19T03:38:38.917Z,99.99
2024-01-19T03:39:38.876Z,99.99
2024-01-19T03:40:38.875Z,99.99
2024-01-19T03:41:38.938Z,99.99
2024-01-19T03:42:38.877Z,99.99
2024-01-19T03:43:38.882Z,99.99
2024-01-19T03:44:38.905Z,99.99
2024-01-19T03:45:38.883Z,99.99
2024-01-19T03:46:38.903Z,99.99
2024-01-19T03:47:39.054Z,99.99
2024-01-19T03:48:39.068Z,99.99
2024-01-19T03:49:38.966Z,99.99
2024-01-19T03:50:38.937Z,99.99
2024-01-19T03:51:38.919Z,99.99
2024-01-19T03:52:38.972Z,99.99
2024-01-19T03:53:38.920Z,99.99
2024-01-19T03:54:38.891Z,99.99
2024-01-19T03:55:38.899Z,99.99
2024-01-19T03:56:38.911Z,99.99
2024-01-19T03:57:38.910Z,99.99
2024-01-19T03:58:38.920Z,99.99
2024-01-19T03:59:38.962Z,99.99
2024-01-19T04:00:38.923Z,99.99
2024-01-19T04:01:38.914Z,99.99
2024-01-19T04:02:39.094Z,99.99
2024-01-19T04:03:39.019Z,99.99
2024-01-19T04:04:39.010Z,99.99
2024-01-19T04:05:39.066Z,99.99
2024-01-19T04:06:38.992Z,99.99
2024-01-19T04:07:38.912Z,99.99
2024-01-19T04:08:38.972Z,99.99
2024-01-19T04:09:38.925Z,99.99
2024-01-19T04:10:38.931Z,99.99
2024-01-19T04:11:38.935Z,99.99
2024-01-19T04:12:38.924Z,99.99
2024-01-19T04:13:38.933Z,99.99
2024-01-19T04:14:38.932Z,99.99
2024-01-19T04:15:38.931Z,99.99
2024-01-19T04:16:38.921Z,99.99
2024-01-19T04:17:39.165Z,99.99
2024-01-19T04:18:39.004Z,99.99
2024-01-19T04:19:38.972Z,99.99
2024-01-19T04:20:38.968Z,99.99
2024-01-19T04:21:38.935Z,99.99
2024-01-19T04:22:38.934Z,99.99
2024-01-19T04:23:38.974Z,99.99
2024-01-19T04:24:38.955Z,99.99
2024-01-19T04:25:38.938Z,99.99
2024-01-19T04:26:39.009Z,99.99
2024-01-19T04:27:38.937Z,99.99
2024-01-19T04:28:38.945Z,99.99
2024-01-19T04:29:38.996Z,99.99
2024-01-19T04:30:38.946Z,99.99
2024-01-19T04:31:39.008Z,99.99
2024-01-19T04:32:39.026Z,99.99
2024-01-19T04:33:39.022Z,99.99
2024-01-19T04:34:38.982Z,99.99
2024-01-19T04:35:39.019Z,99.99
2024-01-19T04:36:38.947Z,99.99
2024-01-19T04:37:38.954Z,99.99
2024-01-19T04:38:39.010Z,99.99
2024-01-19T04:39:38.953Z,99.99
2024-01-19T04:40:38.975Z,99.99
2024-01-19T04:41:38.984Z,99.99
2024-01-19T04:42:38.954Z,99.99
2024-01-19T04:43:38.964Z,99.99
2024-01-19T04:44:39.008Z,99.99
2024-01-19T04:45:38.963Z,99.99
2024-01-19T04:46:41.645Z,99.99
2024-01-19T04:47:39.073Z,99.99
2024-01-19T04:48:39.099Z,99.99
2024-01-19T04:49:38.976Z,99.99
2024-01-19T04:50:39.018Z,99.99
2024-01-19T04:51:38.967Z,99.99
2024-01-19T04:52:38.999Z,99.99
2024-01-19T04:53:39.004Z,99.99
2024-01-19T04:54:38.979Z,99.99
2024-01-19T04:55:38.969Z,99.99
2024-01-19T04:56:39.015Z,99.99
2024-01-19T04:57:38.976Z,99.99
2024-01-19T04:58:38.974Z,99.99
2024-01-19T04:59:39.007Z,99.99
2024-01-19T05:00:39.003Z,99.99
2024-01-19T05:01:39.031Z,99.99
2024-01-19T05:02:39.022Z,99.99
2024-01-19T05:03:39.007Z,99.99
2024-01-19T05:04:39.006Z,99.99
2024-01-19T05:05:39.029Z,99.99
2024-01-19T05:06:39.119Z,99.99
2024-01-19T05:07:39.026Z,99.99
2024-01-19T05:08:39.026Z,99.99
2024-01-19T05:09:39.011Z,99.99
2024-01-19T05:10:38.993Z,99.99
2024-01-19T05:11:39.074Z,99.99
2024-01-19T05:12:39.004Z,99.99
2024-01-19T05:13:38.994Z,99.99
2024-01-19T05:14:39.033Z,99.99
2024-01-19T05:15:39.008Z,99.99
2024-01-19T05:16:38.994Z,99.99
2024-01-19T05:17:39.190Z,99.99
2024-01-19T05:18:39.025Z,99.99
2024-01-19T05:19:39.019Z,99.99
2024-01-19T05:20:39.022Z,99.99
2024-01-19T05:21:39.033Z,99.99
2024-01-19T05:22:39.005Z,99.99
2024-01-19T05:23:39.076Z,99.99
2024-01-19T05:24:39.004Z,99.99
2024-01-19T05:25:41.427Z,99.99
2024-01-19T05:26:39.040Z,99.99
2024-01-19T05:27:39.007Z,99.99
2024-01-19T05:28:39.033Z,99.99
2024-01-19T05:29:39.042Z,99.99
2024-01-19T05:30:39.070Z,99.99
2024-01-19T05:31:39.013Z,99.99
2024-01-19T05:32:39.166Z,99.99
2024-01-19T05:33:40.257Z,99.99
2024-01-19T05:34:39.113Z,99.99
2024-01-19T05:35:39.036Z,99.99
2024-01-19T05:36:39.029Z,99.99
2024-01-19T05:37:39.053Z,99.99
2024-01-19T05:38:39.142Z,99.99
2024-01-19T05:39:39.022Z,99.99
2024-01-19T05:40:39.018Z,99.99
2024-01-19T05:41:39.071Z,99.99
2024-01-19T05:42:39.021Z,99.99
2024-01-19T05:43:39.025Z,99.99
2024-01-19T05:44:39.061Z,99.99
2024-01-19T05:45:39.038Z,99.99
2024-01-19T05:46:39.026Z,99.99
2024-01-19T05:47:39.079Z,99.99
2024-01-19T05:48:39.068Z,99.99
2024-01-19T05:49:39.059Z,99.99
2024-01-19T05:50:39.044Z,99.99
2024-01-19T05:51:39.037Z,99.99
2024-01-19T05:52:39.052Z,99.99
2024-01-19T05:53:39.050Z,99.99
2024-01-19T05:54:39.035Z,99.99
2024-01-19T05:55:39.035Z,99.99
2024-01-19T05:56:39.131Z,99.99
2024-01-19T05:57:39.039Z,99.99
2024-01-19T05:58:39.039Z,99.99
2024-01-19T05:59:39.139Z,99.99
2024-01-19T06:00:39.051Z,99.99
2024-01-19T06:01:39.037Z,99.99
2024-01-19T06:02:39.110Z,99.99
2024-01-19T06:03:39.065Z,99.99
2024-01-19T06:04:39.036Z,99.99
2024-01-19T06:05:39.205Z,99.99
2024-01-19T06:06:39.088Z,99.99
2024-01-19T06:07:39.037Z,99.99
2024-01-19T06:08:39.077Z,99.99
2024-01-19T06:09:39.042Z,99.99
2024-01-19T06:10:39.039Z,99.99
2024-01-19T06:11:39.087Z,99.99
2024-01-19T06:12:39.040Z,99.99
2024-01-19T06:13:39.041Z,99.99
2024-01-19T06:14:39.068Z,99.99
2024-01-19T06:15:39.054Z,99.99
2024-01-19T06:16:39.073Z,99.99
2024-01-19T06:17:39.083Z,99.99
2024-01-19T06:18:39.130Z,99.99
2024-01-19T06:19:39.082Z,99.99
2024-01-19T06:20:39.118Z,99.99
2024-01-19T06:21:39.043Z,99.99
2024-01-19T06:22:39.051Z,99.99
2024-01-19T06:23:39.124Z,99.99
2024-01-19T06:24:39.046Z,99.99
2024-01-19T06:25:39.065Z,99.99
2024-01-19T06:26:39.077Z,99.99
2024-01-19T06:27:39.068Z,99.99
2024-01-19T06:28:39.067Z,99.99
2024-01-19T06:29:39.088Z,99.99
2024-01-19T06:30:39.056Z,99.99
2024-01-19T06:31:39.082Z,99.99
2024-01-19T06:32:39.196Z,99.99
2024-01-19T06:33:39.179Z,99.99
2024-01-19T06:34:39.053Z,99.99
2024-01-19T06:35:39.124Z,99.99
2024-01-19T06:36:39.126Z,99.99
2024-01-19T06:37:39.052Z,99.99
2024-01-19T06:38:39.106Z,99.99
2024-01-19T06:39:39.060Z,99.99
2024-01-19T06:40:39.062Z,99.99
2024-01-19T06:41:39.114Z,99.99
2024-01-19T06:42:39.059Z,99.99
2024-01-19T06:43:39.071Z,99.99
2024-01-19T06:44:39.074Z,99.99
2024-01-19T06:45:39.056Z,99.99
2024-01-19T06:46:39.059Z,99.99
2024-01-19T06:47:39.132Z,99.99
2024-01-19T06:48:39.450Z,99.99
2024-01-19T06:49:39.113Z,99.99
2024-01-19T06:50:39.086Z,99.99
2024-01-19T06:51:39.059Z,99.99
2024-01-19T06:52:39.057Z,99.99
2024-01-19T06:53:39.083Z,99.99
2024-01-19T06:54:39.065Z,99.99
2024-01-19T06:55:39.076Z,99.99
2024-01-19T06:56:39.070Z,99.99
2024-01-19T06:57:39.070Z,99.99
2024-01-19T06:58:39.069Z,99.99
2024-01-19T06:59:40.862Z,99.99
2024-01-19T07:00:39.195Z,99.99
2024-01-19T07:01:39.075Z,99.99
2024-01-19T07:02:39.124Z,99.99
2024-01-19T07:03:39.074Z,99.99
2024-01-19T07:04:39.081Z,99.99
2024-01-19T07:05:39.155Z,99.99
2024-01-19T07:06:39.323Z,99.99
2024-01-19T07:07:39.075Z,99.99
2024-01-19T07:08:39.119Z,99.99
2024-01-19T07:09:39.065Z,99.99
2024-01-19T07:10:39.065Z,99.99
2024-01-19T07:11:39.114Z,99.99
2024-01-19T07:12:39.071Z,99.99
2024-01-19T07:13:39.065Z,99.99
2024-01-19T07:14:39.136Z,99.99
2024-01-19T07:15:39.071Z,99.99
2024-01-19T07:16:39.068Z,99.99
2024-01-19T07:17:39.181Z,99.99
2024-01-19T07:18:39.390Z,99.99
2024-01-19T07:19:39.116Z,99.99
2024-01-19T07:20:39.123Z,99.99
2024-01-19T07:21:39.071Z,99.99
2024-01-19T07:22:39.089Z,99.99
2024-01-19T07:23:39.200Z,99.99
2024-01-19T07:24:39.070Z,99.99
2024-01-19T07:25:39.069Z,99.99
2024-01-19T07:26:39.129Z,99.99
2024-01-19T07:27:39.106Z,99.99
2024-01-19T07:28:39.072Z,99.99
2024-01-19T07:29:39.966Z,99.99
2024-01-19T07:30:39.070Z,99.99
2024-01-19T07:31:39.076Z,99.99
2024-01-19T07:32:51.885Z,99.99
2024-01-19T07:33:39.175Z,99.99
2024-01-19T07:34:39.213Z,99.99
2024-01-19T07:35:39.232Z,99.99
2024-01-19T07:36:39.143Z,99.99
2024-01-19T07:37:39.191Z,99.99
2024-01-19T07:38:39.105Z,99.99
2024-01-19T07:39:39.069Z,99.99
2024-01-19T07:40:39.077Z,99.99
2024-01-19T07:41:39.112Z,99.99
2024-01-19T07:42:39.076Z,99.99
2024-01-19T07:43:39.084Z,99.99
2024-01-19T07:44:39.094Z,99.99
2024-01-19T07:45:39.081Z,99.99
2024-01-19T07:46:39.075Z,99.99
2024-01-19T07:47:39.153Z,99.99
2024-01-19T07:48:39.142Z,99.99
2024-01-19T07:49:39.128Z,99.99
2024-01-19T07:50:39.105Z,99.99
2024-01-19T07:51:39.075Z,99.99
2024-01-19T07:52:39.099Z,99.99
2024-01-19T07:53:39.086Z,99.99
2024-01-19T07:54:39.076Z,99.99
2024-01-19T07:55:39.126Z,99.99
2024-01-19T07:56:39.098Z,99.99
2024-01-19T07:57:39.095Z,99.99
2024-01-19T07:58:39.075Z,99.99
2024-01-19T07:59:39.087Z,99.99
2024-01-19T08:00:39.111Z,99.99
2024-01-19T08:01:39.078Z,99.99
2024-01-19T08:02:39.097Z,99.99
2024-01-19T08:03:39.100Z,99.99
2024-01-19T08:04:39.078Z,99.99
2024-01-19T08:05:39.150Z,99.99
2024-01-19T08:06:39.247Z,99.99
2024-01-19T08:07:39.119Z,99.99
2024-01-19T08:08:39.131Z,99.99
2024-01-19T08:09:39.077Z,99.99
2024-01-19T08:10:39.075Z,99.99
2024-01-19T08:11:39.081Z,99.99
2024-01-19T08:12:39.077Z,99.99
2024-01-19T08:13:39.074Z,99.99
2024-01-19T08:14:39.097Z,99.99
2024-01-19T08:15:39.073Z,99.99
2024-01-19T08:16:39.077Z,99.99
2024-01-19T08:17:39.133Z,99.99
2024-01-19T08:18:39.175Z,99.99
2024-01-19T08:19:39.076Z,99.99
2024-01-19T08:20:39.105Z,99.99
2024-01-19T08:21:39.082Z,99.99
2024-01-19T08:22:39.097Z,99.99
2024-01-19T08:23:39.166Z,99.99
2024-01-19T08:24:39.116Z,99.99
2024-01-19T08:25:39.087Z,99.99
2024-01-19T08:26:39.090Z,99.99
2024-01-19T08:27:39.076Z,99.99
2024-01-19T08:28:39.079Z,99.99
2024-01-19T08:29:39.116Z,99.99
2024-01-19T08:30:39.089Z,99.99
2024-01-19T08:31:39.075Z,99.99
2024-01-19T08:32:39.148Z,99.99
2024-01-19T08:33:39.289Z,99.99
2024-01-19T08:34:39.127Z,99.99
2024-01-19T08:35:39.114Z,99.99
2024-01-19T08:36:39.080Z,99.99
2024-01-19T08:37:39.080Z,99.99
2024-01-19T08:38:39.119Z,99.99
2024-01-19T08:39:39.108Z,99.99
2024-01-19T08:40:39.115Z,99.99
2024-01-19T08:41:39.101Z,99.99
2024-01-19T08:42:39.087Z,99.99
2024-01-19T08:43:39.082Z,99.99
2024-01-19T08:44:39.132Z,99.99
2024-01-19T08:45:39.267Z,99.99
2024-01-19T08:46:39.082Z,99.99
2024-01-19T08:47:39.155Z,99.99
2024-01-19T08:48:39.181Z,99.99
2024-01-19T08:49:39.161Z,99.99
2024-01-19T08:50:39.140Z,99.99
2024-01-19T08:51:39.083Z,99.99
2024-01-19T08:52:39.096Z,99.99
2024-01-19T08:53:39.086Z,99.99
2024-01-19T08:54:39.092Z,99.99
2024-01-19T08:55:39.091Z,99.99
2024-01-19T08:56:43.363Z,99.99
2024-01-19T08:57:39.110Z,99.99
2024-01-19T08:58:39.088Z,99.99
2024-01-19T08:59:39.109Z,99.99
2024-01-19T09:00:39.102Z,99.99
2024-01-19T09:01:39.087Z,99.99
2024-01-19T09:02:46.701Z,99.99
2024-01-19T09:03:39.122Z,99.99
2024-01-19T09:04:39.132Z,99.99
2024-01-19T09:05:39.227Z,99.99
2024-01-19T09:06:40.226Z,99.99
2024-01-19T09:07:39.227Z,99.99
2024-01-19T09:08:39.127Z,99.99
2024-01-19T09:09:39.093Z,99.99
2024-01-19T09:10:39.087Z,99.99
2024-01-19T09:11:39.133Z,99.99
2024-01-19T09:12:39.162Z,99.99
2024-01-19T09:13:39.119Z,99.99
2024-01-19T09:14:39.144Z,99.99
2024-01-19T09:15:39.121Z,99.99
2024-01-19T09:16:39.094Z,99.99
2024-01-19T09:17:39.141Z,99.99
2024-01-19T09:18:39.431Z,99.99
2024-01-19T09:19:40.374Z,99.99
2024-01-19T09:20:39.118Z,99.99
2024-01-19T09:21:39.101Z,99.99
2024-01-19T09:22:39.104Z,99.84
2024-01-19T09:23:39.102Z,99.99
2024-01-19T09:24:39.096Z,99.99
2024-01-19T09:25:39.113Z,99.84
2024-01-19T09:26:39.148Z,99.65
2024-01-19T09:27:39.097Z,97.85
2024-01-19T09:28:39.132Z,96.53
2024-01-19T09:29:39.165Z,95.97
2024-01-19T09:30:39.099Z,94.55
2024-01-19T09:31:39.100Z,93.23
2024-01-19T09:32:39.153Z,92.57
2024-01-19T09:33:39.305Z,92.10
2024-01-19T09:34:39.278Z,93.04
2024-01-19T09:35:39.121Z,94.46
2024-01-19T09:36:39.115Z,95.12
2024-01-19T09:37:39.107Z,95.12
2024-01-19T09:38:39.183Z,95.97
2024-01-19T09:39:39.111Z,95.78
2024-01-19T09:40:39.113Z,96.34
2024-01-19T09:41:39.207Z,96.81
2024-01-19T09:42:39.159Z,97.19
2024-01-19T09:43:39.139Z,96.53
2024-01-19T09:44:39.280Z,94.65
2024-01-19T09:45:39.114Z,93.80
2024-01-19T09:46:39.125Z,93.89
2024-01-19T09:47:39.192Z,93.61
2024-01-19T09:48:39.321Z,94.55
2024-01-19T09:49:39.253Z,95.78
2024-01-19T09:50:39.139Z,95.31
2024-01-19T09:51:39.146Z,95.31
2024-01-19T09:52:39.124Z,95.50
2024-01-19T09:53:39.147Z,95.97
2024-01-19T09:54:39.125Z,95.31
2024-01-19T09:55:39.145Z,94.65
2024-01-19T09:56:39.205Z,93.99
2024-01-19T09:57:39.130Z,94.55
2024-01-19T09:58:39.130Z,93.80
2024-01-19T09:59:39.151Z,94.65
2024-01-19T10:00:39.148Z,95.31
2024-01-19T10:01:39.127Z,95.12
2024-01-19T10:02:39.145Z,94.55
2024-01-19T10:03:39.142Z,93.04
2024-01-19T10:04:39.187Z,92.19
2024-01-19T10:05:39.255Z,92.47
2024-01-19T10:06:39.384Z,91.53
2024-01-19T10:07:39.137Z,91.63
2024-01-19T10:08:39.176Z,91.06
2024-01-19T10:09:39.140Z,90.97
2024-01-19T10:10:39.141Z,89.93
2024-01-19T10:11:39.160Z,88.51
2024-01-19T10:12:39.151Z,88.89
2024-01-19T10:13:41.234Z,90.50
2024-01-19T10:14:39.168Z,90.97
2024-01-19T10:15:39.156Z,91.91
2024-01-19T10:16:39.177Z,91.96
2024-01-19T10:17:39.252Z,93.09
2024-01-19T10:18:39.326Z,92.43
2024-01-19T10:19:41.299Z,92.14
2024-01-19T10:20:39.168Z,91.67
2024-01-19T10:21:39.153Z,91.39
2024-01-19T10:22:39.178Z,90.16
2024-01-19T10:23:39.184Z,88.56
2024-01-19T10:24:39.164Z,88.84
2024-01-19T10:25:39.156Z,88.93
2024-01-19T10:26:39.264Z,88.37
2024-01-19T10:27:39.204Z,88.09
2024-01-19T10:28:39.178Z,86.86
2024-01-19T10:29:39.178Z,85.82
2024-01-19T10:30:39.173Z,86.01
2024-01-19T10:31:39.185Z,86.10
2024-01-19T10:32:39.301Z,86.76
2024-01-19T10:33:39.234Z,87.05
2024-01-19T10:34:39.192Z,87.14
2024-01-19T10:35:41.592Z,86.48
2024-01-19T10:36:39.193Z,85.82
2024-01-19T10:37:39.190Z,85.25
2024-01-19T10:38:39.192Z,87.62
2024-01-19T10:39:39.179Z,88.89
2024-01-19T10:40:39.178Z,88.79
2024-01-19T10:41:39.284Z,89.55
2024-01-19T10:42:39.187Z,88.98
2024-01-19T10:43:39.188Z,88.23
2024-01-19T10:44:39.214Z,88.28
2024-01-19T10:45:39.746Z,88.56
2024-01-19T10:46:39.194Z,88.65
2024-01-19T10:47:39.287Z,89.03
2024-01-19T10:48:39.285Z,87.71
2024-01-19T10:49:39.263Z,87.43
2024-01-19T10:50:39.276Z,86.86
2024-01-19T10:51:39.199Z,84.59
2024-01-19T10:52:39.208Z,84.41
2024-01-19T10:53:39.230Z,85.06
2024-01-19T10:54:39.203Z,84.78
2024-01-19T10:55:39.208Z,84.35
2024-01-19T10:56:39.301Z,84.92
2024-01-19T10:57:39.217Z,84.58
2024-01-19T10:58:39.218Z,82.98
2024-01-19T10:59:39.279Z,81.09
2024-01-19T11:00:39.219Z,79.61
2024-01-19T11:01:39.253Z,77.50
2024-01-19T11:02:39.307Z,77.87
2024-01-19T11:03:39.257Z,79.80
2024-01-19T11:04:41.022Z,80.18
2024-01-19T11:05:39.302Z,80.27
2024-01-19T11:06:39.395Z,80.18
2024-01-19T11:07:39.277Z,79.43
2024-01-19T11:08:39.278Z,78.76
2024-01-19T11:09:39.244Z,78.95
2024-01-19T11:10:39.262Z,77.91
2024-01-19T11:11:39.269Z,78.39
2024-01-19T11:12:39.279Z,77.15
2024-01-19T11:13:39.277Z,77.82
2024-01-19T11:14:39.356Z,77.86
2024-01-19T11:15:39.267Z,78.42
2024-01-19T11:16:40.234Z,78.37
2024-01-19T11:17:39.380Z,75.78
2024-01-19T11:18:39.340Z,75.15
2024-01-19T11:19:39.278Z,74.77
2024-01-19T11:20:39.323Z,74.96
2024-01-19T11:21:39.305Z,74.58
2024-01-19T11:22:42.931Z,75.00
2024-01-19T11:23:39.470Z,74.62
2024-01-19T11:24:39.296Z,73.43
2024-01-19T11:25:39.310Z,72.14
2024-01-19T11:26:39.326Z,71.38
2024-01-19T11:27:39.315Z,70.65
2024-01-19T11:28:39.313Z,67.43
2024-01-19T11:29:39.345Z,64.87
2024-01-19T11:30:39.329Z,64.97
2024-01-19T11:31:39.331Z,64.08
2024-01-19T11:32:39.446Z,65.81
2024-01-19T11:33:39.735Z,70.14
2024-01-19T11:34:39.431Z,73.88
2024-01-19T11:35:39.464Z,74.83
2024-01-19T11:36:39.390Z,76.19
2024-01-19T11:37:39.372Z,75.12
2024-01-19T11:38:39.383Z,74.41
2024-01-19T11:39:39.380Z,75.64
2024-01-19T11:40:39.409Z,76.15
2024-01-19T11:41:39.391Z,74.55
2024-01-19T11:42:39.393Z,73.26
2024-01-19T11:43:39.409Z,71.93
2024-01-19T11:44:39.461Z,71.50
2024-01-19T11:45:39.425Z,70.64
2024-01-19T11:46:39.415Z,69.89
2024-01-19T11:47:39.709Z,69.41
2024-01-19T11:48:39.647Z,69.79
2024-01-19T11:49:39.534Z,71.36
2024-01-19T11:50:39.472Z,74.77
2024-01-19T11:51:39.450Z,76.53
2024-01-19T11:52:39.564Z,77.58
2024-01-19T11:53:39.465Z,78.99
2024-01-19T11:54:39.456Z,79.37
2024-01-19T11:55:39.463Z,80.51
2024-01-19T11:56:39.535Z,82.68
2024-01-19T11:57:40.877Z,83.29
2024-01-19T11:58:39.568Z,83.01
2024-01-19T11:59:39.510Z,82.57
2024-01-19T12:00:39.499Z,81.53
2024-01-19T12:01:39.498Z,80.02
2024-01-19T12:02:39.514Z,79.41
2024-01-19T12:03:41.594Z,80.88
2024-01-19T12:04:39.515Z,81.41
2024-01-19T12:05:39.590Z,83.36
2024-01-19T12:06:39.750Z,84.68
2024-01-19T12:07:39.538Z,86.85
2024-01-19T12:08:39.594Z,85.66
2024-01-19T12:09:39.548Z,85.81
2024-01-19T12:10:39.548Z,87.08
2024-01-19T12:11:39.609Z,86.14
2024-01-19T12:12:39.578Z,86.42
2024-01-19T12:13:45.789Z,86.42
2024-01-19T12:14:39.585Z,87.51
2024-01-19T12:15:39.690Z,84.20
2024-01-19T12:16:39.607Z,82.72
2024-01-19T12:17:39.607Z,82.48
2024-01-19T12:18:39.615Z,80.30
2024-01-19T12:19:39.651Z,76.61
2024-01-19T12:20:39.608Z,73.52
2024-01-19T12:21:39.617Z,72.71
2024-01-19T12:22:39.714Z,70.53
2024-01-19T12:23:39.628Z,67.77
2024-01-19T12:24:39.660Z,67.33
2024-01-19T12:25:39.696Z,67.77
2024-01-19T12:26:39.662Z,68.48
2024-01-19T12:27:39.658Z,68.57
2024-01-19T12:28:39.728Z,69.13
2024-01-19T12:29:39.677Z,68.29
2024-01-19T12:30:39.672Z,66.29
2024-01-19T12:31:39.744Z,65.19
2024-01-19T12:32:39.868Z,65.31
2024-01-19T12:33:39.734Z,66.77
2024-01-19T12:34:39.730Z,67.02
2024-01-19T12:35:39.717Z,67.71
2024-01-19T12:36:39.721Z,70.04
2024-01-19T12:37:39.788Z,70.21
2024-01-19T12:38:39.732Z,73.56
2024-01-19T12:39:39.737Z,75.83
2024-01-19T12:40:39.832Z,76.07
2024-01-19T12:41:39.760Z,78.72
2024-01-19T12:42:39.758Z,80.52
2024-01-19T12:43:39.810Z,81.03
2024-01-19T12:44:39.783Z,79.33
2024-01-19T12:45:39.801Z,77.95
2024-01-19T12:46:39.827Z,76.53
2024-01-19T12:47:39.830Z,74.17
2024-01-19T12:48:39.866Z,73.41
2024-01-19T12:49:46.386Z,72.75
2024-01-19T12:50:39.918Z,74.38
2024-01-19T12:51:41.255Z,76.26
2024-01-19T12:52:39.876Z,78.44